Time;durP1;ratioP1;P1;durP2;ratioP2;P2;SDS_P1;SDS_P2;PMS_P1;PMS_P2;Temp;Humidity;BMP_temperature;BMP_pressure;BME280_temperature;BME280_humidity;BME280_pressure;Samples;Min_cycle;Max_cycle;Signal;HPM_P1;HPM_P2
2021/08/12 00:01:16;;;;;;;20.23;15.70;;;;;;;18.81;69.76;102083.34;4970854;28;20228;-74
2021/08/12 00:03:44;;;;;;;18.30;15.17;;;;;;;18.73;69.97;102083.75;4968382;28;20283;-74
2021/08/12 00:06:11;;;;;;;19.43;17.27;;;;;;;18.78;70.12;102081.94;4969614;28;20222;-73
2021/08/12 00:08:37;;;;;;;23.70;18.33;;;;;;;18.67;70.75;102085.53;4969049;28;20244;-74
2021/08/12 00:11:04;;;;;;;23.63;17.87;;;;;;;18.65;71.23;102078.75;4968286;28;20283;-74
2021/08/12 00:13:30;;;;;;;24.83;19.07;;;;;;;18.72;71.01;102076.69;4968043;28;20212;-74
2021/08/12 00:15:59;;;;;;;24.10;20.87;;;;;;;18.63;70.45;102068.13;4967767;28;20667;-74
2021/08/12 00:18:26;;;;;;;28.17;22.03;;;;;;;18.68;71.06;102072.88;4969561;28;21055;-74
2021/08/12 00:20:53;;;;;;;29.63;21.53;;;;;;;18.70;70.77;102076.13;4970855;28;20228;-74
2021/08/12 00:23:20;;;;;;;29.07;22.77;;;;;;;18.68;71.11;102067.44;4969207;28;20273;-74
2021/08/12 00:25:46;;;;;;;26.90;21.90;;;;;;;18.67;70.57;102072.00;4970408;28;20222;-74
2021/08/12 00:28:12;;;;;;;24.60;21.40;;;;;;;18.63;71.07;102068.13;4968688;28;20353;-73
2021/08/12 00:30:39;;;;;;;29.63;22.67;;;;;;;18.64;71.39;102067.09;4968522;28;20224;-74
2021/08/12 00:33:05;;;;;;;28.23;22.60;;;;;;;18.65;70.56;102073.31;4967750;28;20216;-73
2021/08/12 00:35:32;;;;;;;31.77;25.67;;;;;;;18.62;70.80;102068.38;4968668;28;20236;-74
2021/08/12 00:37:59;;;;;;;31.33;25.17;;;;;;;18.59;72.09;102075.13;4970154;28;20277;-74
2021/08/12 00:40:27;;;;;;;32.77;25.40;;;;;;;18.60;72.10;102078.66;4970373;28;20264;-74
2021/08/12 00:42:53;;;;;;;31.43;24.57;;;;;;;18.66;71.05;102074.97;4968082;28;20223;-74
2021/08/12 00:45:19;;;;;;;30.57;25.43;;;;;;;18.70;70.77;102084.25;4965628;28;20227;-73
2021/08/12 00:47:46;;;;;;;32.27;26.00;;;;;;;18.70;71.08;102071.53;4968583;28;20298;-73
2021/08/12 00:50:12;;;;;;;32.73;25.33;;;;;;;18.87;70.17;102076.94;4968239;28;20240;-73
2021/08/12 00:52:39;;;;;;;31.20;25.17;;;;;;;18.73;70.27;102075.63;4969378;28;20791;-73
2021/08/12 00:55:08;;;;;;;29.23;23.73;;;;;;;18.66;70.75;102066.84;4968128;28;20780;-73
2021/08/12 00:57:35;;;;;;;28.63;23.80;;;;;;;18.78;71.15;102067.56;4967143;28;20309;-73
2021/08/12 01:00:03;;;;;;;32.03;23.97;;;;;;;18.77;70.16;102063.22;4968818;28;20227;-73
2021/08/12 01:02:29;;;;;;;29.23;23.77;;;;;;;18.66;70.54;102054.13;4968912;28;20253;-74
2021/08/12 01:04:55;;;;;;;27.63;23.00;;;;;;;18.56;70.86;102053.97;4967166;28;20248;-74
2021/08/12 01:07:29;;;;;;;31.67;24.70;;;;;;;18.49;71.67;102048.69;4966916;28;20239;-73
2021/08/12 01:09:59;;;;;;;31.43;25.03;;;;;;;18.48;71.49;102044.34;4967750;28;20218;-74
2021/08/12 01:12:35;;;;;;;36.23;28.10;;;;;;;18.47;71.54;102048.13;4967096;28;20267;-74
2021/08/12 01:15:03;;;;;;;36.30;26.50;;;;;;;18.49;71.55;102048.69;4966055;28;20286;-73
2021/08/12 01:17:32;;;;;;;35.53;27.73;;;;;;;18.49;71.73;102043.28;4968820;28;20208;-74
2021/08/12 01:20:10;;;;;;;36.20;28.73;;;;;;;18.45;72.62;102047.56;4969511;28;20230;-74
2021/08/12 01:22:40;;;;;;;36.37;28.10;;;;;;;18.48;71.88;102038.94;4969563;28;20214;-73
2021/08/12 01:25:09;;;;;;;41.63;30.03;;;;;;;18.50;71.98;102033.28;4969782;28;20835;-73
2021/08/12 01:27:38;;;;;;;38.73;30.43;;;;;;;18.46;72.49;102032.16;4967809;28;20238;-73
2021/08/12 01:30:07;;;;;;;46.13;32.57;;;;;;;18.43;71.88;102025.34;4966759;28;20217;-74
2021/08/12 01:32:39;;;;;;;39.67;31.60;;;;;;;18.44;72.45;102026.16;4963800;28;20307;-74
2021/08/12 01:35:08;;;;;;;44.10;32.80;;;;;;;18.35;73.11;102028.44;4968539;28;20227;-73
2021/08/12 01:37:39;;;;;;;43.23;32.23;;;;;;;18.35;72.85;102025.75;4967046;28;20231;-73
2021/08/12 01:40:10;;;;;;;42.63;31.23;;;;;;;18.40;72.44;102027.69;4966099;28;20212;-73
2021/08/12 01:42:38;;;;;;;37.67;30.30;;;;;;;18.41;72.79;102026.63;4964743;28;20220;-73
2021/08/12 01:45:05;;;;;;;40.97;31.70;;;;;;;18.46;72.27;102035.66;4968583;28;20216;-73
2021/08/12 01:47:33;;;;;;;38.20;30.93;;;;;;;18.50;71.62;102031.38;4967890;28;20298;-73
2021/08/12 01:50:02;;;;;;;38.40;30.90;;;;;;;18.53;71.50;102021.94;4965682;28;20301;-73
2021/08/12 01:52:32;;;;;;;35.90;28.73;;;;;;;18.59;70.79;102028.28;4967476;28;20237;-73
2021/08/12 01:54:59;;;;;;;36.43;31.43;;;;;;;18.62;70.86;102038.59;4972586;28;20215;-73
2021/08/12 01:57:25;;;;;;;38.53;31.77;;;;;;;18.50;71.67;102022.44;4970830;28;20727;-73
2021/08/12 01:59:53;;;;;;;38.13;31.67;;;;;;;18.57;71.41;102025.81;4971746;28;20296;-73
2021/08/12 02:02:20;;;;;;;39.40;32.27;;;;;;;18.50;72.50;102030.56;4972264;28;20222;-73
2021/08/12 02:04:47;;;;;;;38.90;31.60;;;;;;;18.64;71.83;102029.19;4972303;28;20226;-74
2021/08/12 02:07:14;;;;;;;34.00;30.43;;;;;;;18.63;71.33;102018.59;4971214;28;20218;-73
2021/08/12 02:09:41;;;;;;;42.93;32.53;;;;;;;18.27;72.88;102023.44;4972232;28;20263;-73
2021/08/12 02:12:09;;;;;;;37.90;30.77;;;;;;;18.21;72.90;102019.00;4972316;28;20215;-74
2021/08/12 02:14:36;;;;;;;36.43;31.87;;;;;;;17.90;74.79;102029.28;4969826;28;20221;-73
2021/08/12 02:17:03;;;;;;;36.87;31.37;;;;;;;18.10;74.37;102028.84;4971372;28;20207;-73
2021/08/12 02:19:30;;;;;;;38.03;29.93;;;;;;;18.05;74.34;102017.94;4973431;28;20292;-73
2021/08/12 02:22:01;;;;;;;36.17;30.53;;;;;;;17.98;74.28;102040.78;4972489;28;20219;-73
2021/08/12 02:24:32;;;;;;;36.53;30.60;;;;;;;18.28;72.83;102045.91;4970013;28;20675;-73
2021/08/12 02:27:01;;;;;;;33.30;28.97;;;;;;;18.33;72.89;102044.09;4974255;28;20644;-73
2021/08/12 02:29:29;;;;;;;35.67;30.23;;;;;;;18.40;72.21;102042.03;4971382;28;20777;-73
2021/08/12 02:31:55;;;;;;;40.50;31.73;;;;;;;18.51;71.74;102043.03;4971710;28;20207;-73
2021/08/12 02:34:23;;;;;;;35.50;30.50;;;;;;;18.56;71.75;102037.72;4968824;28;20245;-74
2021/08/12 02:36:49;;;;;;;37.17;30.97;;;;;;;18.63;71.11;102038.34;4968975;28;20285;-73
2021/08/12 02:39:16;;;;;;;37.30;31.70;;;;;;;18.29;72.87;102040.22;4969890;28;20550;-73
2021/08/12 02:41:43;;;;;;;42.03;32.50;;;;;;;18.29;72.80;102036.72;4969619;28;20289;-73
2021/08/12 02:44:11;;;;;;;44.53;35.20;;;;;;;18.17;73.41;102032.22;4971639;28;20566;-73
2021/08/12 02:46:38;;;;;;;38.60;31.87;;;;;;;18.39;71.69;102042.28;4969146;28;20263;-73
2021/08/12 02:49:06;;;;;;;35.07;28.63;;;;;;;18.53;71.27;102020.06;4969118;28;20247;-74
2021/08/12 02:51:33;;;;;;;40.03;31.97;;;;;;;18.45;71.49;102023.22;4971046;28;20216;-74
2021/08/12 02:54:01;;;;;;;37.43;30.53;;;;;;;18.59;70.63;102020.16;4969847;28;20225;-73
2021/08/12 02:56:27;;;;;;;36.00;31.00;;;;;;;18.60;70.64;102019.91;4972846;28;20220;-73
2021/08/12 02:58:55;;;;;;;34.13;29.50;;;;;;;18.65;70.64;102014.59;4971092;28;20245;-73
2021/08/12 03:01:23;;;;;;;37.03;30.43;;;;;;;18.65;70.29;102021.91;4971281;28;20289;-73
2021/08/12 03:03:50;;;;;;;38.10;29.70;;;;;;;18.66;70.35;102013.53;4971195;28;20955;-73
2021/08/12 03:06:18;;;;;;;30.90;27.13;;;;;;;18.66;70.66;102010.81;4968700;28;20276;-73
2021/08/12 03:08:46;;;;;;;33.27;27.97;;;;;;;18.62;70.46;102008.84;4971703;28;20243;-73
2021/08/12 03:11:14;;;;;;;34.83;28.10;;;;;;;18.68;70.31;102006.00;4969671;28;20224;-74
2021/08/12 03:13:41;;;;;;;33.50;28.47;;;;;;;18.53;70.65;102011.94;4970677;28;20215;-74
2021/08/12 03:16:07;;;;;;;31.73;25.57;;;;;;;18.51;70.28;102010.56;4971275;28;20609;-74
2021/08/12 03:18:35;;;;;;;27.10;24.33;;;;;;;18.63;69.27;102016.69;4967572;28;20762;-74
2021/08/12 03:21:06;;;;;;;25.60;22.83;;;;;;;18.57;68.90;102011.47;4970167;28;20297;-74
2021/08/12 03:23:32;;;;;;;26.77;23.87;;;;;;;18.47;69.03;102009.41;4967759;28;20668;-74
2021/08/12 03:25:59;;;;;;;25.87;22.80;;;;;;;18.30;69.59;102004.03;4966649;28;20223;-73
2021/08/12 03:28:25;;;;;;;23.93;21.47;;;;;;;18.43;69.15;102011.00;4970918;28;20297;-74
2021/08/12 03:30:51;;;;;;;28.10;22.47;;;;;;;18.50;69.09;102006.22;4971039;28;20219;-74
2021/08/12 03:33:18;;;;;;;25.83;22.00;;;;;;;18.48;69.63;102011.06;4969846;28;20262;-73
2021/08/12 03:35:45;;;;;;;26.43;23.33;;;;;;;18.59;69.43;102009.34;4968942;28;20217;-73
2021/08/12 03:38:12;;;;;;;25.80;23.00;;;;;;;18.50;70.33;102007.03;4967552;28;20217;-73
2021/08/12 03:40:38;;;;;;;26.80;24.00;;;;;;;18.36;70.58;102002.22;4969178;28;20218;-74
2021/08/12 03:43:04;;;;;;;26.83;23.93;;;;;;;18.38;71.29;102000.88;4971500;28;20274;-73
2021/08/12 03:45:31;;;;;;;35.47;24.53;;;;;;;18.46;70.74;102007.78;4968197;28;20273;-73
2021/08/12 03:47:57;;;;;;;27.03;23.43;;;;;;;18.46;70.84;102008.59;4970263;28;20244;-73
2021/08/12 03:50:24;;;;;;;29.53;24.53;;;;;;;18.49;70.53;102005.41;4969072;28;20723;-73
2021/08/12 03:52:51;;;;;;;30.27;24.70;;;;;;;18.40;71.29;102006.88;4970808;28;20244;-73
2021/08/12 03:55:20;;;;;;;28.07;24.10;;;;;;;18.39;71.44;101997.13;4967811;28;20220;-74
2021/08/12 03:57:46;;;;;;;30.37;25.47;;;;;;;18.49;71.82;102007.28;4968839;28;20249;-74
2021/08/12 04:00:14;;;;;;;28.80;24.23;;;;;;;18.65;70.42;102011.06;4969837;28;20648;-74
2021/08/12 04:02:41;;;;;;;28.97;25.30;;;;;;;18.71;70.42;101999.25;4972262;28;20682;-74
2021/08/12 04:05:08;;;;;;;29.77;26.37;;;;;;;18.57;71.01;101992.53;4970643;28;20234;-74
2021/08/12 04:07:34;;;;;;;30.77;27.20;;;;;;;18.53;71.66;101989.47;4969358;28;20753;-74
2021/08/12 04:10:02;;;;;;;32.80;27.77;;;;;;;18.33;72.54;101992.69;4967742;28;20460;-73
2021/08/12 04:12:29;;;;;;;29.53;26.03;;;;;;;18.47;71.66;102002.13;4968957;28;20212;-74
2021/08/12 04:14:55;;;;;;;33.10;27.60;;;;;;;18.66;70.90;101991.88;4967520;28;20274;-74
2021/08/12 04:17:21;;;;;;;30.80;27.30;;;;;;;18.69;70.64;102001.41;4965822;28;20216;-74
2021/08/12 04:19:48;;;;;;;33.47;27.10;;;;;;;18.66;71.16;101991.88;4967174;28;20226;-73
2021/08/12 04:22:14;;;;;;;34.97;29.23;;;;;;;18.62;71.38;101988.00;4968417;28;20291;-74
2021/08/12 04:24:40;;;;;;;34.13;28.00;;;;;;;18.60;71.36;101998.25;4968287;28;20222;-74
2021/08/12 04:27:08;;;;;;;35.30;28.23;;;;;;;18.53;71.26;101986.75;4970041;28;20219;-74
2021/08/12 04:29:36;;;;;;;35.53;29.47;;;;;;;18.49;71.47;101999.97;4968835;28;20238;-73
2021/08/12 04:32:02;;;;;;;40.05;34.78;;;;;;;18.45;71.96;102003.44;4969228;28;20594;-77
2021/08/12 04:34:29;;;;;;;36.90;29.90;;;;;;;18.55;71.80;102009.03;4968811;28;20318;-77
2021/08/12 04:36:55;;;;;;;40.83;29.47;;;;;;;18.57;71.82;102012.28;4967810;28;20280;-77
2021/08/12 04:39:22;;;;;;;37.83;32.27;;;;;;;18.38;73.07;102008.19;4965330;28;20221;-78
2021/08/12 04:41:48;;;;;;;34.53;28.83;;;;;;;18.50;72.55;102007.03;4968502;28;20222;-77
2021/08/12 04:44:16;;;;;;;38.90;29.97;;;;;;;18.42;73.05;102009.31;4967188;28;20733;-77
2021/08/12 04:46:42;;;;;;;38.43;30.90;;;;;;;18.23;73.74;102019.59;4966534;28;20225;-77
2021/08/12 04:49:08;;;;;;;35.87;28.37;;;;;;;18.04;74.14;102016.31;4966538;28;20245;-78
2021/08/12 04:51:35;;;;;;;38.93;28.47;;;;;;;18.01;74.55;102024.88;4964108;28;20322;-77
2021/08/12 04:54:02;;;;;;;34.07;27.50;;;;;;;17.92;74.49;102013.66;4969572;28;20206;-77
2021/08/12 04:56:28;;;;;;;32.80;28.27;;;;;;;17.81;75.05;102019.13;4968252;28;20259;-77
2021/08/12 04:58:57;;;;;;;31.30;27.80;;;;;;;17.89;73.91;102008.72;4966214;28;20256;-77
2021/08/12 05:01:24;;;;;;;33.53;27.80;;;;;;;17.81;73.88;102019.13;4967222;28;20301;-77
2021/08/12 05:03:51;;;;;;;29.43;26.27;;;;;;;17.79;73.89;102016.66;4968884;28;20230;-77
2021/08/12 05:06:17;;;;;;;27.73;24.73;;;;;;;17.67;74.28;102017.75;4966540;28;20270;-77
2021/08/12 05:08:44;;;;;;;34.53;26.33;;;;;;;17.68;73.42;102016.69;4967618;28;20240;-77
2021/08/12 05:11:11;;;;;;;30.83;25.63;;;;;;;17.72;73.37;102021.38;4969198;28;20729;-77
2021/08/12 05:13:37;;;;;;;30.23;26.57;;;;;;;17.57;74.15;102023.75;4966937;28;20250;-77
2021/08/12 05:16:05;;;;;;;31.63;26.50;;;;;;;17.69;73.31;102021.88;4967180;28;20230;-77
2021/08/12 05:18:32;;;;;;;28.83;25.70;;;;;;;17.60;73.68;102023.28;4966954;28;20764;-77
2021/08/12 05:20:59;;;;;;;30.30;25.27;;;;;;;17.53;73.54;102025.28;4969412;28;20229;-77
2021/08/12 05:23:25;;;;;;;27.00;24.03;;;;;;;17.57;73.29;102019.19;4967478;28;20219;-77
2021/08/12 05:25:52;;;;;;;29.83;25.53;;;;;;;17.60;73.25;102020.56;4968542;28;20257;-76
2021/08/12 05:28:18;;;;;;;31.30;27.93;;;;;;;17.56;73.24;102012.13;4967128;28;20295;-77
2021/08/12 05:30:45;;;;;;;34.13;26.50;;;;;;;17.42;73.56;102009.97;4968544;28;20216;-77
2021/08/12 05:33:11;;;;;;;31.00;26.73;;;;;;;17.14;74.06;102010.72;4967916;28;20210;-77
2021/08/12 05:35:39;;;;;;;31.00;27.70;;;;;;;17.35;73.63;102008.19;4965323;28;20242;-77
2021/08/12 05:38:05;;;;;;;30.40;26.53;;;;;;;17.78;71.87;102009.59;4969054;28;20230;-77
2021/08/12 05:40:32;;;;;;;29.10;24.70;;;;;;;17.95;71.16;102015.06;4964686;28;20275;-77
2021/08/12 05:42:58;;;;;;;28.30;25.13;;;;;;;18.05;70.76;102007.13;4966384;28;20218;-77
2021/08/12 05:45:25;;;;;;;28.60;25.00;;;;;;;18.02;71.07;102004.06;4966635;28;20233;-77
2021/08/12 05:47:51;;;;;;;28.20;25.13;;;;;;;18.15;70.51;101999.16;4965120;28;20745;-77
2021/08/12 05:50:18;;;;;;;27.57;24.77;;;;;;;18.37;69.32;102003.84;4967347;28;20236;-77
2021/08/12 05:52:45;;;;;;;28.77;24.43;;;;;;;18.29;69.77;102015.06;4967231;28;20240;-77
2021/08/12 05:55:12;;;;;;;28.17;24.53;;;;;;;18.54;69.00;102008.16;4969872;28;20271;-77
2021/08/12 05:57:38;;;;;;;27.90;24.73;;;;;;;18.96;67.98;102009.63;4967488;28;20306;-77
2021/08/12 06:00:06;;;;;;;24.07;21.57;;;;;;;18.73;67.57;102007.94;4966286;28;20651;-77
2021/08/12 06:02:33;;;;;;;24.77;21.67;;;;;;;18.99;67.21;102018.06;4967663;28;20576;-77
2021/08/12 06:04:59;;;;;;;24.63;22.10;;;;;;;19.08;66.36;102019.28;4966457;28;20253;-77
2021/08/12 06:07:26;;;;;;;25.53;22.77;;;;;;;18.85;66.59;102024.09;4969389;28;20219;-77
2021/08/12 06:09:53;;;;;;;26.33;21.80;;;;;;;18.93;67.59;102016.38;4969341;28;20244;-77
2021/08/12 06:12:20;;;;;;;26.13;21.63;;;;;;;19.27;66.58;102014.34;4967137;28;20225;-77
2021/08/12 06:14:46;;;;;;;23.57;20.77;;;;;;;19.51;66.06;102023.06;4967435;28;20216;-77
2021/08/12 06:17:12;;;;;;;26.25;23.60;;;;;;;19.23;66.50;102025.97;4967056;28;20540;-78
2021/08/12 06:19:47;;;;;;;24.43;21.83;;;;;;;19.19;66.99;102035.69;4967888;28;20236;-78
2021/08/12 06:22:13;;;;;;;26.67;21.83;;;;;;;18.65;68.18;102038.13;4969551;28;20218;-78
2021/08/12 06:24:39;;;;;;;25.13;21.97;;;;;;;18.42;70.13;102039.94;4969586;28;20225;-78
2021/08/12 06:27:07;;;;;;;24.20;21.63;;;;;;;18.71;68.99;102050.69;4968236;28;20266;-78
2021/08/12 06:29:35;;;;;;;23.37;20.87;;;;;;;18.50;69.45;102052.22;4968631;28;20252;-78
2021/08/12 06:32:01;;;;;;;27.40;21.03;;;;;;;18.87;68.77;102049.03;4965568;28;20229;-78
2021/08/12 06:34:28;;;;;;;22.40;20.13;;;;;;;18.96;68.07;102048.38;4969351;28;20231;-78
2021/08/12 06:36:54;;;;;;;29.07;21.67;;;;;;;19.21;67.56;102038.94;4966381;28;20590;-78
2021/08/12 06:39:21;;;;;;;24.87;22.27;;;;;;;19.45;67.03;102043.06;4969162;28;20216;-78
2021/08/12 06:41:48;;;;;;;23.93;21.43;;;;;;;19.50;67.47;102036.84;4969496;28;20966;-78
2021/08/12 06:44:17;;;;;;;22.20;19.90;;;;;;;19.43;66.73;102031.63;4969751;28;20213;-78
2021/08/12 06:46:43;;;;;;;22.50;20.20;;;;;;;19.76;65.68;102027.97;4973029;28;20287;-78
2021/08/12 06:49:09;;;;;;;23.90;19.43;;;;;;;19.58;65.92;102031.03;4973045;28;20260;-78
2021/08/12 06:51:36;;;;;;;22.43;19.87;;;;;;;19.70;65.76;102042.56;4972171;28;20673;-78
2021/08/12 06:54:02;;;;;;;22.57;20.13;;;;;;;20.12;64.13;102037.28;4968544;28;20221;-78
2021/08/12 06:56:30;;;;;;;20.27;18.23;;;;;;;19.56;65.96;102044.00;4970042;28;20213;-79
2021/08/12 06:58:56;;;;;;;22.67;19.40;;;;;;;19.52;66.13;102042.84;4972689;28;20671;-78
2021/08/12 07:01:25;;;;;;;22.00;19.70;;;;;;;19.82;65.95;102035.09;4971740;28;20216;-78
2021/08/12 07:03:51;;;;;;;21.30;19.10;;;;;;;19.97;64.79;102042.56;4969896;28;20234;-79
2021/08/12 07:06:17;;;;;;;21.43;19.13;;;;;;;20.52;63.52;102031.38;4969773;28;20568;-78
2021/08/12 07:08:44;;;;;;;21.13;18.83;;;;;;;20.50;63.19;102032.75;4971932;28;20216;-79
2021/08/12 07:11:10;;;;;;;23.47;20.97;;;;;;;20.39;63.80;102036.41;4973249;28;20228;-79
2021/08/12 07:13:36;;;;;;;22.20;19.63;;;;;;;20.24;63.19;102040.63;4973133;28;20227;-79
2021/08/12 07:16:03;;;;;;;21.03;18.83;;;;;;;20.44;63.73;102025.63;4967757;28;20210;-78
2021/08/12 07:18:33;;;;;;;21.53;19.23;;;;;;;20.25;64.36;102030.59;4974779;28;20240;-79
2021/08/12 07:21:00;;;;;;;21.30;19.03;;;;;;;20.20;63.33;102031.38;4971118;28;20285;-78
2021/08/12 07:23:27;;;;;;;24.20;20.03;;;;;;;20.33;63.98;102042.88;4976845;28;20224;-78
2021/08/12 07:25:54;;;;;;;24.27;20.93;;;;;;;20.41;64.04;102045.13;4969678;28;20224;-78
2021/08/12 07:28:20;;;;;;;22.13;19.73;;;;;;;20.67;62.29;102046.97;4972370;28;20217;-79
2021/08/12 07:30:46;;;;;;;24.20;19.83;;;;;;;20.64;63.59;102043.97;4974235;28;20386;-79
2021/08/12 07:33:13;;;;;;;22.80;20.20;;;;;;;20.48;63.78;102053.91;4971516;28;20633;-78
2021/08/12 07:35:40;;;;;;;23.53;20.97;;;;;;;21.32;62.03;102051.16;4972983;28;20214;-79
2021/08/12 07:38:08;;;;;;;22.60;20.23;;;;;;;21.58;61.13;102056.72;4972106;28;20217;-78
2021/08/12 07:40:34;;;;;;;23.23;20.53;;;;;;;21.38;61.41;102055.56;4970334;28;20313;-78
2021/08/12 07:43:01;;;;;;;23.07;20.77;;;;;;;21.55;60.67;102060.78;4971578;28;20247;-78
2021/08/12 07:45:27;;;;;;;24.20;21.63;;;;;;;21.82;60.33;102051.63;4973088;28;20699;-78
2021/08/12 07:47:53;;;;;;;23.83;19.83;;;;;;;22.71;57.90;102050.31;4970345;28;20713;-78
2021/08/12 07:50:20;;;;;;;23.77;21.17;;;;;;;22.57;58.46;102055.50;4970499;28;20241;-78
2021/08/12 07:52:54;;;;;;;26.83;22.80;;;;;;;22.54;58.18;102053.34;4970282;28;20228;-78
2021/08/12 07:55:20;;;;;;;27.60;21.37;;;;;;;21.78;59.55;102061.41;4972473;28;20284;-79
2021/08/12 07:57:47;;;;;;;25.10;22.50;;;;;;;21.63;61.37;102054.03;4971192;28;20248;-78
2021/08/12 08:00:15;;;;;;;26.90;22.70;;;;;;;21.43;62.06;102052.84;4973939;28;20221;-78
2021/08/12 08:02:42;;;;;;;26.87;23.83;;;;;;;22.06;60.65;102055.50;4972458;28;20240;-78
2021/08/12 08:05:10;;;;;;;24.47;21.53;;;;;;;22.24;58.67;102048.72;4972336;28;20350;-78
2021/08/12 08:07:37;;;;;;;24.43;21.60;;;;;;;22.28;59.11;102047.91;4972248;28;20301;-78
2021/08/12 08:10:08;;;;;;;24.03;21.23;;;;;;;21.91;59.51;102053.53;4972176;28;20287;-79
2021/08/12 08:12:34;;;;;;;25.00;20.63;;;;;;;22.17;59.08;102042.72;4969273;28;20205;-78
2021/08/12 08:15:01;;;;;;;23.47;20.27;;;;;;;22.71;57.51;102036.69;4967499;28;20214;-78
2021/08/12 08:17:27;;;;;;;22.80;20.50;;;;;;;21.98;59.53;102042.41;4971772;28;20723;-78
2021/08/12 08:19:55;;;;;;;20.70;18.10;;;;;;;22.90;57.45;102049.50;4972128;28;20231;-78
2021/08/12 08:22:21;;;;;;;20.63;17.17;;;;;;;22.45;56.93;102049.53;4973094;28;20211;-79
2021/08/12 08:24:48;;;;;;;23.87;19.27;;;;;;;22.59;58.34;102042.44;4971088;28;20240;-78
2021/08/12 08:27:16;;;;;;;19.80;18.00;;;;;;;22.74;56.66;102044.31;4972120;28;20705;-79
2021/08/12 08:29:42;;;;;;;19.97;17.87;;;;;;;22.58;56.89;102040.81;4972502;28;20472;-78
2021/08/12 08:32:09;;;;;;;18.60;16.63;;;;;;;22.40;57.16;102047.63;4974243;28;20250;-79
2021/08/12 08:34:35;;;;;;;18.03;16.17;;;;;;;23.07;55.62;102045.63;4970474;28;20314;-79
2021/08/12 08:37:02;;;;;;;18.97;17.17;;;;;;;23.05;55.71;102035.00;4974754;28;20217;-79
2021/08/12 08:39:28;;;;;;;20.37;18.27;;;;;;;22.99;56.24;102041.56;4973135;28;20266;-78
2021/08/12 08:41:54;;;;;;;17.87;16.07;;;;;;;23.03;54.68;102039.13;4973683;28;20281;-79
2021/08/12 08:44:23;;;;;;;18.80;16.17;;;;;;;23.33;54.64;102038.19;4970721;28;20248;-79
2021/08/12 08:46:49;;;;;;;17.73;15.27;;;;;;;23.12;52.71;102032.81;4970422;28;20573;-79
2021/08/12 08:49:20;;;;;;;19.40;15.80;;;;;;;22.82;55.60;102036.41;4971115;28;20677;-79
2021/08/12 08:51:47;;;;;;;16.57;14.63;;;;;;;23.26;53.88;102035.78;4972688;28;20557;-78
2021/08/12 08:54:14;;;;;;;16.50;12.90;;;;;;;23.06;53.38;102030.38;4972557;28;20671;-80
2021/08/12 08:56:41;;;;;;;16.97;15.17;;;;;;;23.35;52.69;102027.81;4972278;28;20213;-78
2021/08/12 08:59:08;;;;;;;15.47;13.87;;;;;;;23.76;51.71;102037.44;4970551;28;20804;-78
2021/08/12 09:01:36;;;;;;;16.00;14.30;;;;;;;23.38;52.80;102035.44;4970476;28;20752;-79
2021/08/12 09:04:03;;;;;;;15.53;14.03;;;;;;;23.18;53.25;102036.34;4972145;28;20503;-79
2021/08/12 09:06:29;;;;;;;19.17;14.27;;;;;;;23.56;52.99;102040.25;4969424;28;20214;-78
2021/08/12 09:08:55;;;;;;;15.67;14.17;;;;;;;24.15;52.05;102044.81;4966888;28;20214;-79
2021/08/12 09:11:22;;;;;;;16.03;13.90;;;;;;;25.04;49.36;102036.38;4972432;28;20242;-79
2021/08/12 09:13:48;;;;;;;14.43;13.03;;;;;;;25.01;49.83;102035.03;4975057;28;20230;-79
2021/08/12 09:16:29;;;;;;;16.07;14.17;;;;;;;23.58;52.07;102043.53;4972460;28;20227;-79
2021/08/12 09:19:11;;;;;;;15.33;13.83;;;;;;;24.55;50.61;102051.88;4971084;28;20253;-79
2021/08/12 09:21:38;;;;;;;19.23;16.40;;;;;;;24.40;50.89;102052.03;4972134;28;20214;-79
2021/08/12 09:24:04;;;;;;;17.63;15.73;;;;;;;23.60;52.28;102046.00;4971525;28;20226;-79
2021/08/12 09:26:38;;;;;;;15.90;14.10;;;;;;;23.73;52.88;102048.91;4972746;28;20217;-79
2021/08/12 09:29:05;;;;;;;14.83;13.33;;;;;;;23.96;51.00;102052.88;4971009;28;20314;-79
2021/08/12 09:31:31;;;;;;;14.13;12.83;;;;;;;24.09;50.12;102054.13;4971973;28;20249;-78
2021/08/12 09:33:58;;;;;;;16.10;14.50;;;;;;;23.52;51.87;102047.38;4972428;28;20341;-79
2021/08/12 09:36:34;;;;;;;17.07;15.27;;;;;;;23.80;52.13;102043.16;4972852;28;20273;-78
2021/08/12 09:39:20;;;;;;;16.07;13.97;;;;;;;24.24;51.15;102045.00;4970930;28;20206;-78
2021/08/12 09:41:48;;;;;;;16.23;14.47;;;;;;;24.33;50.45;102046.06;4972670;28;20335;-79
2021/08/12 09:44:33;;;;;;;14.50;13.10;;;;;;;24.47;50.56;102041.56;4970690;28;20219;-79
2021/08/12 09:47:01;;;;;;;16.03;13.87;;;;;;;24.72;50.14;102043.25;4971036;28;20215;-78
2021/08/12 09:49:40;;;;;;;14.07;11.00;;;;;;;24.61;49.56;102050.72;4969904;28;20220;-78
2021/08/12 09:52:19;;;;;;;12.67;11.37;;;;;;;24.14;50.02;102053.28;4973235;28;20242;-79
2021/08/12 09:54:45;;;;;;;13.17;10.93;;;;;;;23.90;50.90;102055.94;4973860;28;20215;-80
2021/08/12 09:57:16;;;;;;;13.00;11.70;;;;;;;24.01;50.34;102074.69;4974728;28;20243;-81
2021/08/12 09:59:49;;;;;;;12.77;10.80;;;;;;;24.56;50.18;102069.09;4975391;28;20225;-81
2021/08/12 10:02:16;;;;;;;11.37;9.33;;;;;;;24.32;50.76;102066.28;4969456;28;20215;-75
2021/08/12 10:04:42;;;;;;;10.50;8.80;;;;;;;23.95;49.28;102070.34;4966384;28;20236;-74
2021/08/12 10:07:09;;;;;;;10.70;8.50;;;;;;;24.40;47.98;102070.34;4963457;28;20749;-75
2021/08/12 10:09:41;;;;;;;11.80;8.40;;;;;;;23.94;49.80;102063.25;4966303;28;20276;-75
2021/08/12 10:12:08;;;;;;;10.57;7.60;;;;;;;24.33;47.63;102066.00;4964722;28;20211;-75
2021/08/12 10:14:35;;;;;;;9.03;7.93;;;;;;;24.01;48.42;102073.84;4972770;28;20522;-76
2021/08/12 10:17:02;;;;;;;8.10;7.20;;;;;;;24.22;48.45;102071.78;4967727;28;20211;-75
2021/08/12 10:19:28;;;;;;;8.83;6.57;;;;;;;24.21;48.47;102070.16;4969790;28;20260;-76
2021/08/12 10:21:55;;;;;;;8.10;7.30;;;;;;;24.60;47.55;102061.94;4970119;28;20271;-75
2021/08/12 10:24:23;;;;;;;8.03;7.23;;;;;;;25.05;45.61;102068.09;4969959;28;20784;-75
2021/08/12 10:26:52;;;;;;;8.60;7.63;;;;;;;24.98;44.83;102059.38;4967717;28;20230;-75
2021/08/12 10:29:22;;;;;;;7.87;6.93;;;;;;;24.09;47.40;102073.25;4969816;28;20304;-76
2021/08/12 10:31:49;;;;;;;10.47;7.20;;;;;;;24.37;47.52;102066.25;4970358;28;20289;-75
2021/08/12 10:34:15;;;;;;;9.20;6.73;;;;;;;25.00;46.37;102066.19;4968078;28;20235;-75
2021/08/12 10:36:42;;;;;;;8.43;7.50;;;;;;;24.95;45.79;102066.25;4970207;28;20670;-75
2021/08/12 10:39:09;;;;;;;8.97;7.83;;;;;;;24.82;45.40;102064.19;4969976;28;20325;-75
2021/08/12 10:41:36;;;;;;;8.03;6.97;;;;;;;24.87;45.96;102069.59;4968971;28;20650;-76
2021/08/12 10:44:04;;;;;;;9.10;8.20;;;;;;;24.77;46.50;102058.78;4970435;28;20223;-74
2021/08/12 10:46:35;;;;;;;9.40;7.03;;;;;;;25.07;46.81;102057.69;4967433;28;20219;-75
2021/08/12 10:49:24;;;;;;;10.50;6.90;;;;;;;24.80;46.69;102053.56;4968866;28;20235;-75
2021/08/12 10:51:52;;;;;;;9.07;6.70;;;;;;;25.21;46.07;102050.41;4967187;28;20242;-75
2021/08/12 10:54:20;;;;;;;11.47;8.10;;;;;;;24.97;46.21;102046.81;4970807;28;20208;-75
2021/08/12 10:56:46;;;;;;;8.50;7.60;;;;;;;24.68;46.89;102058.59;4970578;28;20306;-74
2021/08/12 10:59:14;;;;;;;9.33;7.73;;;;;;;24.59;47.73;102052.13;4967260;28;20215;-75
2021/08/12 11:01:41;;;;;;;7.93;7.13;;;;;;;24.97;47.00;102050.38;4968179;28;20210;-75
2021/08/12 11:04:08;;;;;;;12.00;7.60;;;;;;;25.20;46.58;102046.84;4969909;28;20237;-75
2021/08/12 11:06:37;;;;;;;8.10;6.43;;;;;;;25.56;45.18;102043.66;4968082;28;20220;-75
2021/08/12 11:09:05;;;;;;;7.73;6.53;;;;;;;25.83;45.15;102053.16;4968626;28;20240;-75
2021/08/12 11:11:54;;;;;;;9.67;7.50;;;;;;;25.83;43.87;102051.25;4968913;28;20239;-75
2021/08/12 11:14:58;;;;;;;10.97;8.53;;;;;;;25.34;46.31;102059.81;4969025;28;20219;-75